createdAt,value
2017-11-24T03:27:49.630Z,0
2017-11-24T03:28:30.195Z,0
2017-11-24T03:29:10.794Z,0
2017-11-24T03:29:51.413Z,0
2017-11-24T03:30:31.970Z,0
2017-11-24T03:31:12.561Z,0
2017-11-24T03:31:53.111Z,0
2017-11-24T03:32:33.696Z,0
2017-11-24T03:33:14.279Z,0
2017-11-24T03:33:54.852Z,0
2017-11-24T03:34:35.443Z,0
2017-11-24T03:35:16.022Z,0
2017-11-24T03:35:56.612Z,0
2017-11-24T03:36:37.181Z,0
2017-11-24T03:37:17.756Z,0
2017-11-24T03:37:58.364Z,0
2017-11-24T03:38:38.950Z,0
2017-11-24T03:39:19.551Z,0
2017-11-24T03:40:00.160Z,0
2017-11-24T03:40:40.755Z,0
2017-11-24T03:41:21.323Z,0
2017-11-24T03:42:01.893Z,0
2017-11-24T03:42:42.535Z,0
2017-11-24T03:43:23.116Z,0
2017-11-24T03:44:03.700Z,0
2017-11-24T03:44:44.286Z,0
2017-11-24T03:45:24.852Z,0
2017-11-24T03:46:05.416Z,0
2017-11-24T03:46:45.990Z,0
2017-11-24T03:47:26.589Z,0
2017-11-24T03:48:07.152Z,0
2017-11-24T03:48:47.716Z,0
2017-11-24T03:49:28.310Z,0
2017-11-24T03:50:08.890Z,0
2017-11-24T03:50:49.485Z,0
2017-11-24T03:51:30.058Z,0
2017-11-24T03:52:10.627Z,0
2017-11-24T03:52:51.225Z,0
2017-11-24T03:53:31.825Z,0
2017-11-24T03:54:12.392Z,0
2017-11-24T03:54:52.947Z,0
2017-11-24T03:55:33.517Z,0
2017-11-24T03:56:14.075Z,0
2017-11-24T03:56:54.698Z,0
2017-11-24T03:57:35.255Z,0
2017-11-24T03:58:15.838Z,0
2017-11-24T03:58:56.403Z,0
2017-11-24T03:59:36.960Z,0
2017-11-24T04:00:17.562Z,0
2017-11-24T04:00:58.125Z,0
2017-11-24T04:01:38.718Z,0
2017-11-24T04:02:19.402Z,0
2017-11-24T04:03:00.000Z,0
2017-11-24T04:03:40.576Z,0
2017-11-24T04:04:21.148Z,0
2017-11-24T04:05:01.736Z,0
2017-11-24T04:05:42.308Z,0
2017-11-24T04:06:22.889Z,0
2017-11-24T04:07:03.459Z,0
2017-11-24T04:07:44.040Z,0
2017-11-24T04:08:24.622Z,0
2017-11-24T04:09:05.181Z,0
2017-11-24T04:09:45.757Z,0
2017-11-24T04:10:26.337Z,0
2017-11-24T04:11:06.942Z,0
2017-11-24T04:11:47.581Z,0
2017-11-24T04:12:28.142Z,0
2017-11-24T04:13:08.731Z,0
2017-11-24T04:13:49.294Z,0
2017-11-24T04:14:29.860Z,0
2017-11-24T04:15:10.452Z,0
2017-11-24T04:15:51.051Z,0
2017-11-24T04:16:31.624Z,0
2017-11-24T04:17:12.218Z,0
2017-11-24T04:17:52.786Z,0
2017-11-24T04:18:33.374Z,0
2017-11-24T04:19:13.981Z,0
2017-11-24T04:19:54.558Z,0
2017-11-24T04:20:35.136Z,0
2017-11-24T04:21:16.624Z,0
2017-11-24T04:21:57.180Z,0
2017-11-24T04:22:37.765Z,0
2017-11-24T04:23:18.343Z,0
2017-11-24T04:23:58.934Z,0
2017-11-24T04:24:39.519Z,0
2017-11-24T04:25:20.106Z,0
2017-11-24T04:26:00.687Z,0
2017-11-24T04:26:41.264Z,0
2017-11-24T04:27:21.841Z,0
2017-11-24T04:28:02.411Z,0
2017-11-24T04:28:42.979Z,0
2017-11-24T04:29:23.558Z,0
2017-11-24T04:30:04.124Z,0
2017-11-24T04:30:44.696Z,0
2017-11-24T04:31:25.270Z,0
2017-11-24T04:32:05.839Z,0
2017-11-24T04:32:46.393Z,0
2017-11-24T04:33:26.953Z,0
2017-11-24T04:34:07.519Z,0
2017-11-24T04:34:48.104Z,0
2017-11-24T05:19:42.319Z,0
2017-11-24T05:20:22.891Z,0
2017-11-24T05:21:03.455Z,0
2017-11-24T05:21:44.019Z,0
2017-11-24T05:22:24.653Z,0
2017-11-24T05:23:05.233Z,0
2017-11-24T05:23:45.829Z,0
2017-11-24T05:24:26.404Z,0
2017-11-24T05:25:07.009Z,0
2017-11-24T05:25:47.594Z,0
2017-11-24T05:26:28.185Z,0
2017-11-24T05:27:08.766Z,0
2017-11-24T05:27:49.333Z,0
2017-11-24T05:28:29.900Z,0
2017-11-24T05:29:10.480Z,0
2017-11-24T05:29:51.062Z,0
2017-11-24T05:30:31.642Z,0
2017-11-24T05:31:12.195Z,0
2017-11-24T05:31:52.764Z,0
2017-11-24T05:32:33.338Z,0
2017-11-24T05:33:13.903Z,0
2017-11-24T05:33:54.483Z,0
2017-11-24T05:34:35.100Z,0
2017-11-24T05:35:15.675Z,0
2017-11-24T05:35:56.256Z,0
2017-11-24T05:36:36.821Z,0
2017-11-24T05:37:17.420Z,0
2017-11-24T05:37:57.993Z,0
2017-11-24T05:38:38.622Z,0
2017-11-24T05:39:19.183Z,0
2017-11-24T05:39:59.816Z,0
2017-11-24T05:40:40.424Z,0
2017-11-24T05:41:21.007Z,0
2017-11-24T05:42:01.593Z,0
2017-11-24T05:42:42.166Z,0
2017-11-24T05:43:22.718Z,0
2017-11-24T05:44:03.278Z,0
2017-11-24T05:44:43.854Z,0
2017-11-24T05:45:24.423Z,0
2017-11-24T05:46:05.013Z,0
2017-11-24T05:46:45.593Z,0
2017-11-24T05:47:26.158Z,0
2017-11-24T05:48:06.739Z,0
2017-11-24T05:48:47.298Z,0
2017-11-24T05:49:27.857Z,0
2017-11-24T05:50:08.452Z,0
2017-11-24T05:50:49.023Z,0
2017-11-24T05:51:29.644Z,0
2017-11-24T05:53:58.730Z,0
2017-11-24T05:54:39.367Z,0
2017-11-24T05:55:19.927Z,0
2017-11-24T05:56:00.534Z,0
2017-11-24T05:56:41.100Z,0
2017-11-24T05:57:21.673Z,0
2017-11-24T05:58:02.252Z,0
2017-11-24T05:58:42.824Z,0
2017-11-24T05:59:23.423Z,0
2017-11-24T06:00:04.001Z,0
2017-11-24T06:00:44.560Z,0
2017-11-24T06:01:25.154Z,0
2017-11-24T06:02:05.735Z,0
2017-11-24T06:02:46.320Z,0
2017-11-24T06:03:26.911Z,0
2017-11-24T06:04:07.505Z,0
2017-11-24T06:04:48.105Z,0
2017-11-24T06:05:28.691Z,0
2017-11-24T06:06:09.265Z,0
2017-11-24T06:06:49.842Z,0
2017-11-24T06:07:30.418Z,0
2017-11-24T06:08:11.014Z,0
2017-11-24T06:08:56.549Z,0
2017-11-24T06:09:37.142Z,0
2017-11-24T06:10:17.725Z,0
2017-11-24T06:10:58.322Z,0
2017-11-24T06:11:38.934Z,0
2017-11-24T06:12:20.304Z,0
2017-11-24T06:13:00.915Z,0
2017-11-24T06:13:41.609Z,0
2017-11-24T06:14:22.176Z,0
2017-11-24T06:15:02.759Z,0
2017-11-24T06:15:43.335Z,0
2017-11-24T06:16:24.088Z,0
2017-11-24T06:17:04.700Z,0
2017-11-24T06:17:45.252Z,0
2017-11-24T06:18:25.835Z,0
2017-11-24T06:19:06.408Z,0
2017-11-24T06:19:46.991Z,0
2017-11-24T06:20:27.567Z,0
2017-11-24T06:21:08.135Z,4
2017-11-24T06:21:48.718Z,4
2017-11-24T06:22:29.306Z,4
2017-11-24T06:23:09.871Z,4
2017-11-24T06:23:50.483Z,0
2017-11-24T06:24:31.062Z,4
2017-11-24T06:25:11.724Z,4
2017-11-24T06:25:52.298Z,4
2017-11-24T06:26:32.868Z,4
2017-11-24T06:27:13.458Z,8
2017-11-24T06:27:54.034Z,4
2017-11-24T06:28:34.619Z,8
2017-11-24T06:29:15.203Z,8
2017-11-24T06:29:55.827Z,8
2017-11-24T06:30:36.416Z,12
2017-11-24T06:31:16.982Z,12
2017-11-24T06:31:57.585Z,12
2017-11-24T06:32:38.171Z,16
2017-11-24T06:33:18.758Z,12
2017-11-24T06:33:59.360Z,12
2017-11-24T06:34:39.936Z,16
2017-11-24T06:35:20.494Z,16
2017-11-24T06:36:01.057Z,20
2017-11-24T06:36:41.629Z,20
2017-11-24T06:37:22.216Z,32
2017-11-24T06:38:02.826Z,36
2017-11-24T06:38:43.455Z,36
2017-11-24T06:39:24.025Z,32
2017-11-24T06:40:04.606Z,24
2017-11-24T06:40:45.193Z,24
2017-11-24T06:41:25.770Z,24
2017-11-24T06:42:06.351Z,28
2017-11-24T06:42:46.942Z,28
2017-11-24T06:43:27.520Z,28
2017-11-24T06:44:08.139Z,28
2017-11-24T06:44:48.732Z,28
2017-11-24T06:45:29.315Z,32
2017-11-24T06:46:09.887Z,32
2017-11-24T06:46:50.473Z,36
2017-11-24T06:47:31.063Z,32
2017-11-24T06:48:11.641Z,36
2017-11-24T06:48:52.292Z,40
2017-11-24T06:49:32.877Z,44
2017-11-24T06:50:13.466Z,48
2017-11-24T06:50:54.036Z,44
2017-11-24T06:51:34.625Z,40
2017-11-24T06:52:15.176Z,36
2017-11-24T06:52:55.752Z,44
2017-11-24T06:53:36.334Z,56
2017-11-24T06:54:16.906Z,64
2017-11-24T06:54:57.483Z,80
2017-11-24T06:55:38.038Z,88
2017-11-24T06:56:18.600Z,92
2017-11-24T06:56:59.182Z,100
2017-11-24T06:57:39.790Z,112
2017-11-24T06:58:20.362Z,120
2017-11-24T06:59:00.919Z,128
2017-11-24T06:59:41.482Z,124
2017-11-24T07:00:22.059Z,124
2017-11-24T07:01:02.638Z,120
2017-11-24T07:01:43.322Z,120
2017-11-24T07:02:23.895Z,120
2017-11-24T07:03:04.470Z,112
2017-11-24T07:03:45.041Z,104
2017-11-24T07:04:25.642Z,104
2017-11-24T07:05:06.254Z,100
2017-11-24T07:05:46.803Z,100
2017-11-24T07:06:27.378Z,104
2017-11-24T07:07:07.948Z,108
2017-11-24T07:07:48.540Z,112
2017-11-24T07:08:29.104Z,112
2017-11-24T07:09:09.674Z,124
2017-11-24T07:09:50.256Z,132
2017-11-24T07:10:30.854Z,140
2017-11-24T07:11:11.429Z,152
2017-11-24T07:11:52.051Z,164
2017-11-24T07:12:32.632Z,184
2017-11-24T07:13:13.185Z,204
2017-11-24T07:13:54.259Z,216
2017-11-24T07:14:34.861Z,228
2017-11-24T07:15:15.464Z,240
2017-11-24T07:15:56.053Z,264
2017-11-24T07:16:36.652Z,284
2017-11-24T07:17:17.227Z,304
2017-11-24T07:17:57.866Z,316
2017-11-24T07:18:38.431Z,336
2017-11-24T07:19:18.986Z,360
2017-11-24T07:19:59.553Z,388
2017-11-24T07:20:40.155Z,412
2017-11-24T07:21:20.728Z,424
2017-11-24T07:22:01.288Z,440
2017-11-24T07:22:41.862Z,456
2017-11-24T07:23:22.432Z,472
2017-11-24T07:24:03.006Z,488
2017-11-24T07:24:43.555Z,500
2017-11-24T07:25:24.160Z,516
2017-11-24T07:26:04.725Z,532
2017-11-24T07:26:45.320Z,540
2017-11-24T07:27:25.885Z,540
2017-11-24T07:28:06.437Z,564
2017-11-24T07:28:47.000Z,584
2017-11-24T07:29:27.573Z,628
2017-11-24T07:30:08.137Z,648
2017-11-24T07:30:48.722Z,676
2017-11-24T07:31:29.326Z,712
2017-11-24T07:32:09.905Z,748
2017-11-24T07:32:50.501Z,792
2017-11-24T07:33:31.063Z,836
2017-11-24T07:34:11.635Z,844
2017-11-24T07:34:52.192Z,852
2017-11-24T07:35:32.765Z,856
2017-11-24T07:36:13.368Z,864
2017-11-24T07:36:53.941Z,924
2017-11-24T07:37:34.510Z,968
2017-11-24T07:38:15.079Z,992
2017-11-24T07:38:55.655Z,952
2017-11-24T07:39:36.242Z,888
2017-11-24T07:40:16.838Z,832
2017-11-24T07:40:57.420Z,780
2017-11-24T07:41:37.996Z,700
2017-11-24T07:42:18.566Z,632
2017-11-24T07:42:59.146Z,596
2017-11-24T07:43:39.716Z,568
2017-11-24T07:44:20.283Z,520
2017-11-24T07:45:00.873Z,472
2017-11-24T07:45:41.422Z,444
2017-11-24T07:46:21.993Z,424
2017-11-24T07:47:02.599Z,416
2017-11-24T07:47:43.206Z,428
2017-11-24T07:48:23.762Z,440
2017-11-24T07:49:04.328Z,448
2017-11-24T07:49:44.890Z,448
2017-11-24T07:50:25.483Z,448
2017-11-24T07:51:06.048Z,440
2017-11-24T07:51:46.657Z,436
2017-11-24T07:52:27.231Z,436
2017-11-24T07:53:07.796Z,444
2017-11-24T07:53:48.413Z,464
2017-11-24T07:54:28.973Z,492
2017-11-24T07:55:09.533Z,508
2017-11-24T07:55:50.091Z,512
2017-11-24T07:56:30.661Z,532
2017-11-24T07:57:11.293Z,552
2017-11-24T07:57:51.882Z,576
2017-11-24T07:58:32.476Z,632
2017-11-24T07:59:13.053Z,704
2017-11-24T07:59:53.659Z,828
2017-11-24T08:00:34.225Z,996
2017-11-24T08:01:14.774Z,1172
2017-11-24T08:01:55.358Z,1332
2017-11-24T08:02:35.992Z,1444
2017-11-24T08:03:16.550Z,1568
2017-11-24T08:03:57.136Z,1724
2017-11-24T08:04:37.708Z,1868
2017-11-24T08:05:18.285Z,2088
2017-11-24T08:05:58.853Z,2260
2017-11-24T08:06:39.424Z,2308
2017-11-24T08:07:20.059Z,2144
2017-11-24T08:08:00.645Z,2012
2017-11-24T08:08:41.270Z,1888
2017-11-24T08:09:21.834Z,1752
2017-11-24T08:10:02.423Z,1636
2017-11-24T08:10:42.996Z,1596
2017-11-24T08:11:23.574Z,1592
2017-11-24T08:12:04.208Z,1660
2017-11-24T08:12:44.800Z,1720
2017-11-24T08:13:25.404Z,1812
2017-11-24T08:14:05.968Z,1848
2017-11-24T08:14:46.552Z,1788
2017-11-24T08:15:27.139Z,1896
2017-11-24T08:16:07.725Z,2172
2017-11-24T08:16:48.295Z,2544
2017-11-24T08:17:28.866Z,2888
2017-11-24T08:18:09.462Z,3132
2017-11-24T08:18:50.048Z,3152
2017-11-24T08:19:30.617Z,2872
2017-11-24T08:20:11.201Z,1892
2017-11-24T08:20:51.810Z,1384
2017-11-24T08:21:32.359Z,1232
2017-11-24T08:22:12.974Z,1132
2017-11-24T08:22:53.584Z,960
2017-11-24T08:23:34.155Z,872
2017-11-24T08:24:14.755Z,768
2017-11-24T08:24:55.334Z,752
2017-11-24T08:25:35.909Z,876
2017-11-24T08:26:16.483Z,1016
2017-11-24T08:26:57.068Z,1132
2017-11-24T08:27:37.678Z,1292
2017-11-24T08:28:18.271Z,1608
2017-11-24T08:28:58.874Z,2060
2017-11-24T08:29:39.500Z,2612
2017-11-24T08:30:20.090Z,3000
2017-11-24T08:31:00.691Z,4944
2017-11-24T08:31:41.333Z,7800
2017-11-24T08:32:21.951Z,4832
2017-11-24T08:33:02.545Z,2312
2017-11-24T08:33:43.145Z,2132
2017-11-24T08:34:23.725Z,1992
2017-11-24T08:35:04.282Z,1736
2017-11-24T08:35:44.872Z,1548
2017-11-24T08:36:25.458Z,1480
2017-11-24T08:37:06.035Z,1500
2017-11-24T08:37:46.595Z,1584
2017-11-24T08:38:27.179Z,1636
2017-11-24T08:39:07.729Z,1728
2017-11-24T08:39:48.305Z,1876
2017-11-24T08:40:28.911Z,1984
2017-11-24T08:41:09.481Z,2156
2017-11-24T08:41:50.045Z,2040
2017-11-24T08:42:30.658Z,2308
2017-11-24T08:43:11.297Z,2260
2017-11-24T08:43:51.865Z,2328
2017-11-24T08:44:32.443Z,2400
2017-11-24T08:45:13.059Z,2640
2017-11-24T08:45:53.677Z,2876
2017-11-24T08:46:34.256Z,2808
2017-11-24T08:47:14.841Z,2564
2017-11-24T08:47:55.437Z,2344
2017-11-24T08:48:36.024Z,2112
2017-11-24T08:49:16.589Z,1748
2017-11-24T08:49:57.175Z,1408
2017-11-24T08:50:37.764Z,1084
2017-11-24T08:51:18.338Z,852
2017-11-24T08:51:58.917Z,712
2017-11-24T08:52:39.514Z,640
2017-11-24T08:53:20.084Z,624
2017-11-24T08:54:00.685Z,672
2017-11-24T08:54:41.265Z,684
2017-11-24T08:55:21.882Z,680
2017-11-24T08:56:02.460Z,676
2017-11-24T08:56:43.010Z,672
2017-11-24T08:57:23.584Z,688
2017-11-24T08:58:04.160Z,724
2017-11-24T08:58:44.748Z,784
2017-11-24T08:59:25.326Z,816
2017-11-24T09:00:05.899Z,788
2017-11-24T09:00:46.499Z,728
2017-11-24T09:01:27.080Z,660
2017-11-24T09:02:07.647Z,608
2017-11-24T09:02:48.233Z,604
2017-11-24T09:03:28.878Z,628
2017-11-24T09:04:09.448Z,632
2017-11-24T09:04:50.039Z,656
2017-11-24T09:05:30.606Z,720
2017-11-24T09:06:11.171Z,764
2017-11-24T09:06:51.736Z,772
2017-11-24T09:07:32.312Z,780
2017-11-24T09:08:12.882Z,832
2017-11-24T09:08:53.471Z,888
2017-11-24T09:09:34.053Z,996
2017-11-24T09:10:14.647Z,1236
2017-11-24T09:10:55.214Z,1416
2017-11-24T09:11:35.809Z,1536
2017-11-24T09:12:16.398Z,1700
2017-11-24T09:12:56.955Z,1768
2017-11-24T09:13:37.569Z,1700
2017-11-24T09:14:18.155Z,1548
2017-11-24T09:14:58.786Z,1808
2017-11-24T09:15:39.391Z,2520
2017-11-24T09:16:20.007Z,3136
2017-11-24T09:17:00.582Z,3100
2017-11-24T09:17:41.157Z,3384
2017-11-24T09:18:21.806Z,2928
2017-11-24T09:19:02.377Z,2992
2017-11-24T09:19:42.973Z,3684
2017-11-24T09:20:23.589Z,3524
2017-11-24T09:21:04.168Z,4152
2017-11-24T09:21:44.736Z,9340
2017-11-24T09:22:25.392Z,24512
2017-11-24T09:23:05.988Z,22848
2017-11-24T09:23:46.569Z,18592
2017-11-24T09:24:27.143Z,9624
2017-11-24T09:25:07.751Z,26688
2017-11-24T09:25:48.316Z,26368
2017-11-24T09:26:28.891Z,3660
2017-11-24T09:27:09.453Z,4900
2017-11-24T09:27:50.037Z,4008
2017-11-24T09:28:30.612Z,12728
2017-11-24T09:29:11.196Z,19392
2017-11-24T09:29:51.771Z,22912
2017-11-24T09:30:32.360Z,22144
2017-11-24T09:31:12.927Z,9504
2017-11-24T09:31:53.533Z,12208
2017-11-24T09:32:34.105Z,7616
2017-11-24T09:33:14.693Z,11304
2017-11-24T09:33:55.305Z,11372
2017-11-24T09:34:35.872Z,10836
2017-11-24T09:35:16.450Z,5544
2017-11-24T09:35:57.021Z,5168
2017-11-24T09:36:37.624Z,5076
2017-11-24T09:37:18.235Z,6612
2017-11-24T09:37:58.805Z,5532
2017-11-24T09:38:39.372Z,4576
2017-11-24T09:39:19.964Z,4108
2017-11-24T09:40:00.557Z,3932
2017-11-24T09:40:41.158Z,3776
2017-11-24T09:41:21.740Z,4096
2017-11-24T09:42:02.320Z,8488
2017-11-24T09:42:42.908Z,5412
2017-11-24T09:43:23.490Z,4504
2017-11-24T09:44:04.059Z,4228
2017-11-24T09:44:44.635Z,3936
2017-11-24T09:45:25.247Z,4056
2017-11-24T09:46:05.806Z,4200
2017-11-24T09:46:46.400Z,4076
2017-11-24T09:47:26.992Z,3700
2017-11-24T09:48:07.568Z,3504
2017-11-24T09:48:48.163Z,3628
2017-11-24T09:49:28.738Z,3568
2017-11-24T09:50:09.317Z,3176
2017-11-24T09:50:49.906Z,2728
2017-11-24T09:51:30.478Z,2388
2017-11-24T09:52:11.047Z,2272
2017-11-24T09:52:51.644Z,2136
2017-11-24T09:53:32.232Z,1964
2017-11-24T09:54:12.840Z,2012
2017-11-24T09:54:53.418Z,2084
2017-11-24T09:55:33.987Z,2136
2017-11-24T09:56:14.566Z,2108
2017-11-24T09:56:55.224Z,2180
2017-11-24T09:57:35.807Z,2328
2017-11-24T09:58:16.384Z,2576
2017-11-24T09:58:56.972Z,2732
2017-11-24T09:59:37.537Z,2672
2017-11-24T10:00:18.154Z,3048
2017-11-24T10:00:58.726Z,2712
2017-11-24T10:01:39.319Z,2796
2017-11-24T10:02:19.886Z,2764
2017-11-24T10:03:00.455Z,3144
2017-11-24T10:03:41.094Z,3440
2017-11-24T10:04:21.669Z,3256
2017-11-24T10:05:02.248Z,3224
2017-11-24T10:05:42.926Z,3212
2017-11-24T10:06:23.566Z,3400
2017-11-24T10:07:04.174Z,3196
2017-11-24T10:07:44.754Z,2912
2017-11-24T10:08:25.375Z,2580
2017-11-24T10:09:05.981Z,2276
2017-11-24T10:09:46.565Z,2040
2017-11-24T10:10:27.144Z,1872
2017-11-24T10:11:07.756Z,1772
2017-11-24T10:11:48.318Z,1768
2017-11-24T10:12:28.888Z,2108
2017-11-24T10:13:09.498Z,2648
2017-11-24T10:13:50.090Z,3240
2017-11-24T10:14:30.671Z,3720
2017-11-24T10:15:11.242Z,3540
2017-11-24T10:15:51.823Z,3396
2017-11-24T10:16:32.403Z,3320
2017-11-24T10:17:12.966Z,3144
2017-11-24T10:17:53.607Z,2956
2017-11-24T10:18:34.212Z,2668
2017-11-24T10:19:14.839Z,2284
2017-11-24T10:19:55.421Z,2096
2017-11-24T10:20:36.000Z,2236
2017-11-24T10:21:16.586Z,2340
2017-11-24T10:21:57.157Z,2500
2017-11-24T10:22:37.792Z,2728
2017-11-24T10:23:18.372Z,2932
2017-11-24T10:23:58.962Z,3132
2017-11-24T10:24:39.538Z,3344
2017-11-24T10:25:20.119Z,3536
2017-11-24T10:26:00.679Z,3848
2017-11-24T10:26:41.258Z,4072
2017-11-24T10:27:21.820Z,4292
2017-11-24T10:28:02.394Z,4408
2017-11-24T10:28:43.045Z,4320
2017-11-24T10:29:23.584Z,4320
2017-11-24T10:30:04.166Z,4728
2017-11-24T10:30:44.797Z,4600
2017-11-24T10:31:25.392Z,4388
2017-11-24T10:32:05.937Z,4160
2017-11-24T10:32:46.508Z,3884
2017-11-24T10:33:27.092Z,3632
2017-11-24T10:34:07.687Z,3580
2017-11-24T10:34:48.248Z,3592
2017-11-24T10:35:28.807Z,3628
2017-11-24T10:36:09.409Z,3660
2017-11-24T10:36:49.974Z,3364
2017-11-24T10:37:30.601Z,3172
2017-11-24T10:38:11.197Z,3088
2017-11-24T10:38:51.839Z,3168
2017-11-24T10:39:32.388Z,3108
2017-11-24T10:40:12.982Z,3088
2017-11-24T10:40:53.574Z,3160
2017-11-24T10:41:34.145Z,3212
2017-11-24T10:42:14.762Z,3304
2017-11-24T10:42:55.350Z,3344
2017-11-24T10:43:35.929Z,3280
2017-11-24T10:44:16.497Z,3160
2017-11-24T10:44:57.112Z,3020
2017-11-24T10:45:37.713Z,2836
2017-11-24T10:46:18.310Z,2656
2017-11-24T10:46:58.881Z,2620
2017-11-24T10:47:39.483Z,2744
2017-11-24T10:48:20.059Z,2732
2017-11-24T10:49:00.636Z,2640
2017-11-24T10:49:41.219Z,2456
2017-11-24T10:50:21.807Z,2376
2017-11-24T10:51:02.434Z,2308
2017-11-24T10:51:43.006Z,2384
2017-11-24T10:52:23.587Z,2472
2017-11-24T10:53:04.197Z,2548
2017-11-24T10:53:44.764Z,2632
2017-11-24T10:54:25.402Z,2976
2017-11-24T10:55:05.971Z,3132
2017-11-24T10:55:46.561Z,3028
2017-11-24T10:56:27.140Z,2936
2017-11-24T10:57:07.739Z,3032
2017-11-24T10:57:48.370Z,3148
2017-11-24T10:58:28.947Z,3188
2017-11-24T10:59:09.529Z,3096
2017-11-24T10:59:50.134Z,2972
2017-11-24T11:00:30.708Z,2852
2017-11-24T11:01:11.271Z,2660
2017-11-24T11:01:51.855Z,2424
2017-11-24T11:02:32.461Z,2268
2017-11-24T11:03:13.124Z,2176
2017-11-24T11:03:53.688Z,2100
2017-11-24T11:04:34.313Z,2052
2017-11-24T11:05:14.988Z,2048
2017-11-24T11:05:55.560Z,2076
2017-11-24T11:06:36.127Z,2116
2017-11-24T11:07:16.747Z,2176
2017-11-24T11:07:57.361Z,2240
2017-11-24T11:08:37.948Z,2276
2017-11-24T11:09:18.544Z,2328
2017-11-24T11:09:59.110Z,2384
2017-11-24T11:10:39.678Z,2424
2017-11-24T11:11:20.248Z,2396
2017-11-24T11:12:00.829Z,2448
2017-11-24T11:12:41.393Z,2512
2017-11-24T11:13:21.997Z,2540
2017-11-24T11:14:02.576Z,2548
2017-11-24T11:14:43.185Z,2488
2017-11-24T11:15:23.762Z,2400
2017-11-24T11:16:04.357Z,2336
2017-11-24T11:16:44.952Z,2304
2017-11-24T11:17:25.528Z,2208
2017-11-24T11:18:06.095Z,1976
2017-11-24T11:18:46.657Z,1580
2017-11-24T11:19:27.259Z,1432
2017-11-24T11:20:07.818Z,1440
2017-11-24T11:20:48.415Z,1544
2017-11-24T11:21:28.982Z,1500
2017-11-24T11:22:09.590Z,1552
2017-11-24T11:22:50.146Z,1524
2017-11-24T11:23:30.715Z,1404
2017-11-24T11:24:11.304Z,1276
2017-11-24T11:24:51.879Z,1152
2017-11-24T11:25:32.467Z,1128
2017-11-24T11:26:13.060Z,1164
2017-11-24T11:26:53.648Z,1224
2017-11-24T11:27:34.250Z,1372
2017-11-24T11:28:14.949Z,1464
2017-11-24T11:28:55.533Z,1448
2017-11-24T11:29:36.166Z,1436
2017-11-24T11:30:16.737Z,1588
2017-11-24T11:30:57.339Z,1684
2017-11-24T11:31:37.921Z,1716
2017-11-24T11:32:18.514Z,1688
2017-11-24T11:32:59.124Z,1708
2017-11-24T11:33:39.744Z,1776
2017-11-24T11:34:20.318Z,1812
2017-11-24T11:35:00.965Z,1888
2017-11-24T11:35:41.504Z,1948
2017-11-24T11:36:22.078Z,2032
2017-11-24T11:37:02.664Z,2136
2017-11-24T11:37:43.258Z,2260
2017-11-24T11:38:23.834Z,2388
2017-11-24T11:39:04.442Z,2432
2017-11-24T11:39:45.038Z,2376
2017-11-24T11:40:25.622Z,2296
2017-11-24T11:41:06.204Z,2316
2017-11-24T11:41:46.817Z,2268
2017-11-24T11:42:27.392Z,2204
2017-11-24T11:43:07.979Z,2208
2017-11-24T11:43:48.580Z,2056
2017-11-24T11:44:29.172Z,1900
2017-11-24T11:45:09.733Z,1668
2017-11-24T11:45:50.321Z,1536
2017-11-24T11:46:30.924Z,1452
2017-11-24T11:47:11.509Z,1420
2017-11-24T11:47:52.113Z,1368
2017-11-24T11:48:32.694Z,1380
2017-11-24T11:49:13.277Z,1296
2017-11-24T11:49:53.843Z,1324
2017-11-24T11:50:34.436Z,1392
2017-11-24T11:51:15.004Z,1432
2017-11-24T11:51:55.599Z,1572
2017-11-24T11:52:36.200Z,1872
2017-11-24T11:53:16.802Z,1984
2017-11-24T11:53:57.385Z,2040
2017-11-24T11:54:37.960Z,1904
2017-11-24T11:55:18.547Z,1828
2017-11-24T11:55:59.139Z,1756
2017-11-24T11:56:39.715Z,1640
2017-11-24T11:57:20.296Z,1516
2017-11-24T11:58:00.860Z,1436
2017-11-24T11:58:41.464Z,1336
2017-11-24T11:59:22.044Z,1200
2017-11-24T12:00:02.658Z,984
2017-11-24T12:00:43.252Z,868
2017-11-24T12:01:23.871Z,884
2017-11-24T12:02:04.429Z,932
2017-11-24T12:02:45.010Z,932
2017-11-24T12:03:25.625Z,968
2017-11-24T12:04:06.183Z,996
2017-11-24T12:04:46.773Z,1028
2017-11-24T12:05:27.364Z,960
2017-11-24T12:06:07.926Z,932
2017-11-24T12:06:48.529Z,868
2017-11-24T12:07:29.138Z,764
2017-11-24T12:08:09.731Z,684
2017-11-24T12:08:50.328Z,644
2017-11-24T12:09:30.914Z,604
2017-11-24T12:10:11.486Z,592
2017-11-24T12:10:52.083Z,556
2017-11-24T12:11:32.709Z,548
2017-11-24T12:12:13.295Z,572
2017-11-24T12:12:53.882Z,588
2017-11-24T12:13:34.508Z,604
2017-11-24T12:14:15.105Z,632
2017-11-24T12:14:55.688Z,680
2017-11-24T12:15:36.256Z,732
2017-11-24T12:16:16.853Z,796
2017-11-24T12:16:57.465Z,848
2017-11-24T12:17:38.056Z,864
2017-11-24T12:18:18.659Z,888
2017-11-24T12:18:59.246Z,892
2017-11-24T12:19:39.825Z,984
2017-11-24T12:20:20.409Z,1148
2017-11-24T12:21:01.022Z,1252
2017-11-24T12:21:41.611Z,1356
2017-11-24T12:22:22.226Z,1624
2017-11-24T12:23:02.816Z,1884
2017-11-24T12:23:43.428Z,2308
2017-11-24T12:24:24.069Z,2532
2017-11-24T12:25:04.655Z,2348
2017-11-24T12:25:45.230Z,2304
2017-11-24T12:26:25.827Z,2260
2017-11-24T12:27:06.488Z,2004
2017-11-24T12:27:47.071Z,2036
2017-11-24T12:28:27.699Z,1768
2017-11-24T12:29:08.272Z,1336
2017-11-24T12:29:48.874Z,1096
2017-11-24T12:30:31.217Z,1044
2017-11-24T12:31:15.195Z,940
2017-11-24T12:31:57.585Z,780
2017-11-24T12:32:38.164Z,644
2017-11-24T12:33:18.742Z,576
2017-11-24T12:33:59.352Z,504
2017-11-24T12:34:39.968Z,496
2017-11-24T12:35:20.536Z,524
2017-11-24T12:36:01.134Z,544
2017-11-24T12:36:41.734Z,584
2017-11-24T12:37:22.317Z,548
2017-11-24T12:38:02.902Z,528
2017-11-24T12:38:43.520Z,604
2017-11-24T12:39:24.091Z,660
2017-11-24T12:40:04.664Z,800
2017-11-24T12:40:45.268Z,704
2017-11-24T12:41:25.857Z,512
2017-11-24T12:42:06.452Z,392
2017-11-24T12:42:47.066Z,372
2017-11-24T12:43:27.647Z,352
2017-11-24T12:44:08.252Z,372
2017-11-24T12:44:48.844Z,392
2017-11-24T12:45:29.457Z,400
2017-11-24T12:46:10.043Z,380
2017-11-24T12:46:50.665Z,348
2017-11-24T12:47:31.246Z,304
2017-11-24T12:48:11.803Z,300
2017-11-24T12:48:52.415Z,340
2017-11-24T12:49:32.993Z,360
2017-11-24T12:50:13.614Z,348
2017-11-24T12:50:54.194Z,356
2017-11-24T12:51:34.798Z,332
2017-11-24T12:52:15.411Z,296
2017-11-24T12:52:55.996Z,292
2017-11-24T12:53:36.581Z,292
2017-11-24T12:54:17.155Z,300
2017-11-24T12:54:57.754Z,296
2017-11-24T12:55:38.341Z,288
2017-11-24T12:56:18.943Z,296
2017-11-24T12:56:59.526Z,292
2017-11-24T12:57:40.106Z,284
2017-11-24T12:58:20.679Z,336
2017-11-24T12:59:01.291Z,316
2017-11-24T12:59:41.893Z,244
2017-11-24T13:00:22.472Z,212
2017-11-24T13:01:03.073Z,196
2017-11-24T13:01:43.635Z,188
2017-11-24T13:02:24.249Z,196
2017-11-24T13:03:04.819Z,232
2017-11-24T13:03:45.443Z,292
2017-11-24T13:04:26.017Z,332
2017-11-24T13:05:06.607Z,332
2017-11-24T13:05:47.208Z,324
2017-11-24T13:06:27.798Z,316
2017-11-24T13:07:08.385Z,332
2017-11-24T13:07:49.018Z,328
2017-11-24T13:08:29.621Z,304
2017-11-24T13:09:10.222Z,300
2017-11-24T13:09:50.808Z,332
2017-11-24T13:10:31.402Z,312
2017-11-24T13:11:11.984Z,248
2017-11-24T13:11:52.583Z,224
2017-11-24T13:12:33.146Z,240
2017-11-24T13:13:13.753Z,256
2017-11-24T13:13:54.323Z,220
2017-11-24T13:14:34.916Z,148
2017-11-24T13:15:15.599Z,100
2017-11-24T13:15:56.205Z,96
2017-11-24T13:16:36.794Z,92
2017-11-24T13:17:17.382Z,76
2017-11-24T13:17:57.975Z,64
2017-11-24T13:18:38.578Z,68
2017-11-24T13:19:19.166Z,60
2017-11-24T13:19:59.745Z,52
2017-11-24T13:20:40.352Z,48
2017-11-24T13:21:20.944Z,56
2017-11-24T13:22:01.528Z,56
2017-11-24T13:22:42.119Z,56
2017-11-24T13:23:22.693Z,60
2017-11-24T13:24:03.289Z,56
2017-11-24T13:24:43.894Z,56
2017-11-24T13:25:24.489Z,60
2017-11-24T13:26:05.101Z,68
2017-11-24T13:26:45.679Z,72
2017-11-24T13:27:26.262Z,72
2017-11-24T13:28:06.842Z,68
2017-11-24T13:28:47.412Z,68
2017-11-24T13:29:27.995Z,68
2017-11-24T13:30:08.577Z,68
2017-11-24T13:30:49.152Z,76
2017-11-24T13:31:29.745Z,84
2017-11-24T13:32:10.322Z,92
2017-11-24T13:32:50.897Z,92
2017-11-24T13:33:31.469Z,92
2017-11-24T13:34:12.057Z,88
2017-11-24T13:34:52.658Z,88
2017-11-24T13:35:33.291Z,100